createdAt,value
2022-09-20T00:02:37.361Z,9.32
2022-09-20T00:05:42.830Z,9.37
2022-09-20T00:08:46.060Z,9.37
2022-09-20T00:11:48.900Z,9.40
2022-09-20T00:14:51.336Z,9.39
2022-09-20T00:17:54.133Z,9.40
2022-09-20T00:20:56.631Z,9.36
2022-09-20T00:23:59.992Z,9.37
2022-09-20T00:27:03.581Z,9.31
2022-09-20T00:30:07.199Z,9.30
2022-09-20T00:33:09.708Z,9.28
2022-09-20T00:36:12.731Z,9.21
2022-09-20T00:39:16.406Z,9.26
2022-09-20T00:42:19.236Z,9.23
2022-09-20T00:45:27.406Z,9.19
2022-09-20T00:48:32.819Z,9.14
2022-09-20T00:51:41.006Z,9.20
2022-09-20T00:54:44.144Z,9.16
2022-09-20T00:57:47.487Z,9.17
2022-09-20T01:00:54.831Z,9.12
2022-09-20T01:03:58.947Z,9.01
2022-09-20T01:07:04.515Z,9.00
2022-09-20T01:10:07.231Z,8.94
2022-09-20T01:13:09.994Z,8.97
2022-09-20T01:16:14.349Z,9.00
2022-09-20T01:19:35.274Z,9.03
2022-09-20T01:23:02.481Z,9.12
2022-09-20T01:26:40.830Z,9.16
2022-09-20T01:29:49.411Z,9.21
2022-09-20T01:32:58.101Z,9.19
2022-09-20T01:36:05.261Z,9.18
2022-09-20T01:39:42.875Z,9.20
2022-09-20T01:42:56.308Z,9.18
2022-09-20T01:46:10.333Z,9.29
2022-09-20T01:49:41.456Z,9.34
2022-09-20T01:53:09.126Z,9.42
2022-09-20T01:56:20.672Z,9.45
2022-09-20T01:59:34.798Z,9.42
2022-09-20T02:03:09.636Z,9.38
2022-09-20T02:06:18.033Z,9.26
2022-09-20T02:09:49.653Z,9.24
2022-09-20T02:12:56.043Z,9.20
2022-09-20T02:16:29.720Z,9.19
2022-09-20T02:19:46.781Z,9.11
2022-09-20T02:23:17.042Z,9.15
2022-09-20T02:26:38.350Z,9.23
2022-09-20T02:30:06.640Z,9.19
2022-09-20T02:33:34.271Z,9.20
2022-09-20T02:36:52.684Z,9.20
2022-09-20T02:40:40.121Z,9.18
2022-09-20T02:44:16.759Z,9.11
2022-09-20T02:47:25.582Z,9.11
2022-09-20T02:50:59.148Z,9.12
2022-09-20T02:54:14.297Z,9.15
2022-09-20T02:57:38.925Z,9.15
2022-09-20T03:01:13.729Z,9.10
2022-09-20T03:04:40.528Z,9.11
2022-09-20T03:08:13.711Z,9.06
2022-09-20T03:12:02.280Z,9.06
2022-09-20T03:15:11.290Z,9.09
2022-09-20T03:18:33.406Z,9.04
2022-09-20T03:21:52.387Z,9.01
2022-09-20T03:25:04.583Z,9.07
2022-09-20T03:28:44.230Z,9.05
2022-09-20T03:31:52.483Z,9.05
2022-09-20T03:35:03.483Z,9.03
2022-09-20T03:38:41.438Z,9.08
2022-09-20T03:41:59.289Z,9.04
2022-09-20T03:45:01.856Z,9.03
2022-09-20T03:48:37.022Z,9.10
2022-09-20T03:52:00.380Z,9.06
2022-09-20T03:55:14.101Z,9.03
2022-09-20T03:58:52.766Z,9.01
2022-09-20T04:02:13.642Z,8.98
2022-09-20T04:05:25.738Z,8.92
2022-09-20T04:09:13.043Z,8.94
2022-09-20T04:12:27.139Z,8.94
2022-09-20T04:15:46.710Z,8.94
2022-09-20T04:19:11.616Z,8.93
2022-09-20T04:22:14.852Z,8.92
2022-09-20T04:25:23.726Z,8.96
2022-09-20T04:28:33.692Z,8.91
2022-09-20T04:31:50.916Z,8.88
2022-09-20T04:35:38.343Z,8.88
2022-09-20T04:38:41.661Z,8.88
2022-09-20T04:42:18.983Z,8.87
2022-09-20T04:45:33.888Z,8.82
2022-09-20T04:48:52.513Z,8.69
2022-09-20T04:52:13.581Z,8.57
2022-09-20T04:55:38.759Z,8.52
2022-09-20T04:58:56.781Z,8.60
2022-09-20T05:02:28.025Z,8.68
2022-09-20T05:05:49.016Z,8.76
2022-09-20T05:09:13.603Z,8.89
2022-09-20T05:12:54.590Z,8.96
2022-09-20T05:16:18.237Z,8.98
2022-09-20T05:19:31.256Z,9.05
2022-09-20T05:22:45.684Z,9.07
2022-09-20T05:26:09.931Z,9.11
2022-09-20T05:29:29.676Z,9.16
2022-09-20T05:32:55.718Z,9.22
2022-09-20T05:36:17.441Z,9.24
2022-09-20T05:39:38.545Z,9.22
2022-09-20T05:43:01.729Z,9.20
2022-09-20T05:46:32.856Z,9.30
2022-09-20T05:49:50.666Z,9.36
2022-09-20T05:52:59.389Z,9.51
2022-09-20T05:56:07.788Z,9.60
2022-09-20T05:59:37.521Z,9.67
2022-09-20T06:03:06.051Z,9.73
2022-09-20T06:06:30.414Z,9.85
2022-09-20T06:09:55.918Z,9.82
2022-09-20T06:13:16.584Z,9.79
2022-09-20T06:16:35.442Z,10.01
2022-09-20T06:20:16.443Z,9.99
2022-09-20T06:23:19.252Z,9.86
2022-09-20T06:26:27.107Z,10.12
2022-09-20T06:29:34.171Z,10.26
2022-09-20T06:33:12.899Z,10.27
2022-09-20T06:36:52.392Z,10.23
2022-09-20T06:40:44.705Z,10.29
2022-09-20T06:43:48.613Z,10.92
2022-09-20T06:46:54.417Z,11.48
2022-09-20T06:49:58.931Z,11.74
2022-09-20T06:53:04.793Z,12.48
2022-09-20T06:56:17.346Z,12.24
2022-09-20T06:59:20.254Z,12.84
2022-09-20T07:02:22.796Z,12.22
2022-09-20T07:05:26.542Z,12.47
2022-09-20T07:08:28.998Z,12.70
2022-09-20T07:11:34.561Z,13.32
2022-09-20T07:14:37.362Z,14.02
2022-09-20T07:17:40.191Z,13.28
2022-09-20T07:20:42.634Z,13.53
2022-09-20T07:23:48.616Z,12.90
2022-09-20T07:26:57.350Z,14.01
2022-09-20T07:30:00.564Z,14.33
2022-09-20T07:33:03.132Z,15.60
2022-09-20T07:36:06.126Z,15.30
2022-09-20T07:39:08.587Z,14.80
2022-09-20T07:42:12.454Z,14.84
2022-09-20T07:45:15.302Z,15.17
2022-09-20T07:48:18.151Z,15.33
2022-09-20T07:51:21.375Z,16.36
2022-09-20T07:54:24.314Z,16.87
2022-09-20T07:57:26.897Z,15.55
2022-09-20T08:00:29.756Z,16.88
2022-09-20T08:03:34.555Z,17.04
2022-09-20T08:06:39.311Z,15.85
2022-09-20T08:09:42.258Z,16.29
2022-09-20T08:16:10.671Z,17.35
2022-09-20T08:19:18.988Z,17.80
2022-09-20T08:22:23.399Z,17.25
2022-09-20T08:25:25.952Z,18.38
2022-09-20T08:28:30.137Z,17.00
2022-09-20T08:31:36.764Z,16.07
2022-09-20T08:34:40.654Z,16.80
2022-09-20T08:37:43.669Z,15.74
2022-09-20T08:40:47.319Z,15.87
2022-09-20T08:43:56.483Z,16.76
2022-09-20T08:47:21.300Z,16.19
2022-09-20T08:50:24.459Z,15.93
2022-09-20T08:53:29.451Z,14.62
2022-09-20T08:56:38.857Z,14.94
2022-09-20T08:59:41.953Z,14.31
2022-09-20T09:02:45.029Z,14.64
2022-09-20T09:05:58.095Z,13.81
2022-09-20T09:09:00.814Z,13.85
2022-09-20T09:12:04.218Z,13.77
2022-09-20T09:15:30.122Z,14.01
2022-09-20T09:18:37.559Z,14.04
2022-09-20T09:21:47.036Z,14.17
2022-09-20T09:25:07.473Z,13.93
2022-09-20T09:28:23.335Z,14.25
2022-09-20T09:31:26.713Z,14.37
2022-09-20T09:34:33.423Z,14.68
2022-09-20T09:37:36.208Z,13.88
2022-09-20T09:40:50.684Z,13.71
2022-09-20T09:44:25.439Z,14.25
2022-09-20T09:47:29.670Z,13.73
2022-09-20T09:50:34.807Z,13.40
2022-09-20T09:53:39.585Z,13.87
2022-09-20T09:57:24.324Z,13.86
2022-09-20T10:00:33.212Z,14.43
2022-09-20T10:04:06.761Z,14.59
2022-09-20T10:07:42.789Z,15.04
2022-09-20T10:11:00.898Z,15.57
2022-09-20T10:14:17.748Z,15.47
2022-09-20T10:17:39.281Z,15.45
2022-09-20T10:20:55.939Z,15.18
2022-09-20T10:24:16.860Z,15.01
2022-09-20T10:27:48.345Z,14.78
2022-09-20T10:31:25.599Z,14.41
2022-09-20T10:34:37.717Z,14.77
2022-09-20T10:38:14.529Z,15.22
2022-09-20T10:42:03.821Z,15.03
2022-09-20T10:45:36.025Z,15.45
2022-09-20T10:48:52.411Z,16.01
2022-09-20T10:51:58.476Z,16.20
2022-09-20T10:55:03.677Z,16.35
2022-09-20T10:58:26.339Z,20.05
2022-09-20T11:01:32.084Z,21.38
2022-09-20T11:05:00.674Z,22.31
2022-09-20T11:08:03.640Z,20.98
2022-09-20T11:11:17.091Z,22.56
2022-09-20T11:14:31.812Z,24.36
2022-09-20T11:18:13.107Z,23.04
2022-09-20T11:21:20.691Z,19.94
2022-09-20T11:24:31.030Z,17.10
2022-09-20T11:27:42.575Z,16.53
2022-09-20T11:31:00.081Z,16.40
2022-09-20T11:34:11.951Z,15.27
2022-09-20T11:37:17.268Z,14.54
2022-09-20T11:40:27.821Z,14.53
2022-09-20T11:43:32.171Z,15.46
2022-09-20T11:46:52.291Z,18.09
2022-09-20T11:50:45.262Z,22.28
2022-09-20T11:53:47.792Z,23.50
2022-09-20T11:56:57.133Z,21.41
2022-09-20T12:00:07.486Z,21.99
2022-09-20T12:03:40.475Z,24.68
2022-09-20T12:06:43.782Z,24.87
2022-09-20T12:09:54.139Z,27.65
2022-09-20T12:13:05.841Z,26.55
2022-09-20T12:16:35.265Z,24.65
2022-09-20T12:19:38.867Z,22.12
2022-09-20T12:22:41.535Z,19.81
2022-09-20T12:26:01.984Z,18.74
2022-09-20T12:29:29.686Z,19.38
2022-09-20T12:32:37.255Z,19.69
2022-09-20T12:35:39.941Z,20.90
2022-09-20T12:38:48.298Z,18.96
2022-09-20T12:42:09.727Z,19.95
2022-09-20T12:45:19.203Z,19.12
2022-09-20T12:48:22.434Z,18.55
2022-09-20T12:51:51.041Z,17.92
2022-09-20T12:54:56.305Z,18.50
2022-09-20T12:58:03.050Z,18.54
2022-09-20T13:01:07.572Z,18.16
2022-09-20T13:04:49.947Z,18.57
2022-09-20T13:07:59.330Z,17.36
2022-09-20T13:11:14.685Z,16.45
2022-09-20T13:14:22.647Z,16.22
2022-09-20T13:17:30.970Z,16.24
2022-09-20T13:20:35.211Z,15.98
2022-09-20T13:23:49.002Z,15.78
2022-09-20T13:26:54.078Z,15.22
2022-09-20T13:30:35.319Z,15.78
2022-09-20T13:33:37.935Z,15.55
2022-09-20T13:36:41.583Z,15.88
2022-09-20T13:39:44.093Z,16.52
2022-09-20T13:42:50.004Z,17.19
2022-09-20T13:46:13.368Z,18.98
2022-09-20T13:49:23.769Z,18.80
2022-09-20T13:52:30.437Z,19.86
2022-09-20T13:55:39.086Z,22.21
2022-09-20T13:58:42.555Z,21.81
2022-09-20T14:01:51.114Z,24.02
2022-09-20T14:04:56.708Z,24.00
2022-09-20T14:08:00.879Z,21.99
2022-09-20T14:11:28.883Z,20.96
2022-09-20T14:14:33.193Z,20.17
2022-09-20T14:17:36.492Z,19.37
2022-09-20T14:20:43.491Z,18.20
2022-09-20T14:24:06.836Z,17.40
2022-09-20T14:27:18.451Z,15.87
2022-09-20T14:30:30.237Z,15.07
2022-09-20T14:33:33.057Z,14.93
2022-09-20T14:36:35.978Z,14.65
2022-09-20T14:39:48.485Z,14.52
2022-09-20T14:42:56.116Z,14.66
2022-09-20T14:46:03.251Z,14.51
2022-09-20T14:49:24.563Z,14.29
2022-09-20T14:52:27.718Z,14.28
2022-09-20T14:55:37.658Z,13.91
2022-09-20T14:59:02.822Z,14.09
2022-09-20T15:02:10.324Z,14.16
2022-09-20T15:05:25.943Z,14.30
2022-09-20T15:08:29.054Z,14.04
2022-09-20T15:11:31.667Z,14.19
2022-09-20T15:14:37.736Z,14.10
2022-09-20T15:17:42.596Z,14.04
2022-09-20T15:20:45.413Z,14.12
2022-09-20T15:23:47.926Z,13.96
2022-09-20T15:26:50.705Z,13.89
2022-09-20T15:29:53.415Z,13.86
2022-09-20T15:33:00.864Z,13.88
2022-09-20T15:36:05.608Z,13.58
2022-09-20T15:39:09.336Z,13.07
2022-09-20T15:42:11.905Z,13.00
2022-09-20T15:45:14.807Z,12.82
2022-09-20T15:48:21.482Z,12.49
2022-09-20T15:51:24.430Z,12.46
2022-09-20T15:54:26.924Z,12.38
2022-09-20T15:57:31.192Z,12.30
2022-09-20T16:00:33.955Z,12.18
2022-09-20T16:03:36.884Z,12.00
2022-09-20T16:06:41.565Z,12.02
2022-09-20T16:09:44.316Z,11.83
2022-09-20T16:12:46.857Z,11.72
2022-09-20T16:15:57.464Z,11.59
2022-09-20T16:19:20.042Z,11.58
2022-09-20T16:22:22.730Z,11.54
2022-09-20T16:25:25.232Z,11.52
2022-09-20T16:28:29.152Z,11.53
2022-09-20T16:31:41.891Z,11.51
2022-09-20T16:34:45.593Z,11.48
2022-09-20T16:37:48.246Z,11.50
2022-09-20T16:40:55.663Z,11.35
2022-09-20T16:43:58.263Z,11.19
2022-09-20T16:47:01.250Z,11.15
2022-09-20T16:50:05.010Z,11.04
2022-09-20T16:53:07.971Z,11.00
2022-09-20T16:56:21.747Z,10.87
2022-09-20T16:59:24.562Z,10.82
2022-09-20T17:02:27.157Z,10.79
2022-09-20T17:05:29.941Z,10.65
2022-09-20T17:08:39.997Z,10.65
2022-09-20T17:11:50.052Z,10.76
2022-09-20T17:14:52.678Z,10.75
2022-09-20T17:17:57.626Z,10.67
2022-09-20T17:21:08.089Z,10.74
2022-09-20T17:24:11.263Z,10.60
2022-09-20T17:27:13.795Z,10.50
2022-09-20T17:30:17.573Z,10.54
2022-09-20T17:33:20.178Z,10.57
2022-09-20T17:36:22.953Z,10.54
2022-09-20T17:39:25.661Z,10.50
2022-09-20T17:42:28.390Z,10.50
2022-09-20T17:45:30.961Z,10.48
2022-09-20T17:48:36.728Z,10.43
2022-09-20T17:51:44.717Z,10.40
2022-09-20T17:54:47.543Z,10.37
2022-09-20T17:57:52.491Z,10.33
2022-09-20T18:01:02.338Z,10.27
2022-09-20T18:04:06.482Z,10.24
2022-09-20T18:07:09.147Z,10.24
2022-09-20T18:10:15.621Z,10.18
2022-09-20T18:13:18.116Z,10.15
2022-09-20T18:16:20.914Z,10.06
2022-09-20T18:19:23.589Z,10.04
2022-09-20T18:22:26.374Z,10.03
2022-09-20T18:25:29.883Z,9.97
2022-09-20T18:28:32.637Z,9.92
2022-09-20T18:31:39.791Z,9.89
2022-09-20T18:34:42.575Z,9.87
2022-09-20T18:37:45.633Z,9.86
2022-09-20T18:40:55.731Z,9.85
2022-09-20T18:43:58.587Z,9.80
2022-09-20T18:47:03.713Z,9.78
2022-09-20T18:50:12.081Z,9.75
2022-09-20T18:53:14.860Z,9.75
2022-09-20T18:56:32.355Z,9.70
2022-09-20T18:59:35.520Z,9.68
2022-09-20T19:02:50.105Z,9.67
2022-09-20T19:06:02.415Z,9.67
2022-09-20T19:09:15.293Z,9.68
2022-09-20T19:12:25.209Z,9.63
2022-09-20T19:15:36.604Z,9.59
2022-09-20T19:19:15.096Z,9.51
2022-09-20T19:22:37.749Z,9.44
2022-09-20T19:25:45.489Z,9.39
2022-09-20T19:28:50.081Z,9.35
2022-09-20T19:31:56.130Z,9.31
2022-09-20T19:35:01.816Z,9.29
2022-09-20T19:38:39.183Z,9.24
2022-09-20T19:41:47.163Z,9.22
2022-09-20T19:44:59.257Z,9.20
2022-09-20T19:48:20.627Z,9.21
2022-09-20T19:51:24.119Z,9.14
2022-09-20T19:54:26.786Z,9.13
2022-09-20T19:57:42.771Z,9.10
2022-09-20T20:00:47.019Z,9.26
2022-09-20T20:03:51.300Z,9.21
2022-09-20T20:07:14.028Z,9.19
2022-09-20T20:10:28.048Z,9.21
2022-09-20T20:14:03.474Z,9.21
2022-09-20T20:17:12.078Z,9.18
2022-09-20T20:20:33.929Z,9.11
2022-09-20T20:23:51.478Z,9.04
2022-09-20T20:26:53.941Z,9.04
2022-09-20T20:29:56.913Z,8.96
2022-09-20T20:32:59.556Z,8.97
2022-09-20T20:36:02.810Z,8.94
2022-09-20T20:39:06.253Z,8.93
2022-09-20T20:42:12.858Z,8.88
2022-09-20T20:45:15.743Z,8.88
2022-09-20T20:48:18.502Z,8.86
2022-09-20T20:51:22.863Z,8.86
2022-09-20T20:54:25.903Z,8.87
2022-09-20T20:57:28.412Z,8.82
2022-09-20T21:00:31.245Z,8.88
2022-09-20T21:03:34.408Z,8.87
2022-09-20T21:06:39.666Z,8.82
2022-09-20T21:09:42.214Z,8.93
2022-09-20T21:12:45.327Z,8.87
2022-09-20T21:15:48.797Z,8.80
2022-09-20T21:18:51.744Z,8.80
2022-09-20T21:21:54.280Z,8.80
2022-09-20T21:24:57.081Z,8.80
2022-09-20T21:28:01.077Z,8.86
2022-09-20T21:31:08.052Z,8.78
2022-09-20T21:34:12.193Z,8.79
2022-09-20T21:37:14.926Z,8.82
2022-09-20T21:40:17.459Z,8.86
2022-09-20T21:43:22.063Z,8.85
2022-09-20T21:46:30.009Z,8.78
2022-09-20T21:49:32.743Z,8.79
2022-09-20T21:52:35.213Z,8.76
2022-09-20T21:55:37.954Z,8.70
2022-09-20T21:58:40.923Z,8.66
2022-09-20T22:01:43.865Z,8.74
2022-09-20T22:04:53.541Z,8.73
2022-09-20T22:07:56.765Z,8.66
2022-09-20T22:10:59.508Z,8.60
2022-09-20T22:14:02.284Z,8.55
2022-09-20T22:17:05.043Z,8.61
2022-09-20T22:20:07.828Z,8.55
2022-09-20T22:23:11.944Z,8.51
2022-09-20T22:26:17.268Z,8.48
2022-09-20T22:29:20.321Z,8.44
2022-09-20T22:32:22.853Z,8.39
2022-09-20T22:35:25.571Z,8.38
2022-09-20T22:38:29.726Z,8.36
2022-09-20T22:41:32.584Z,8.30
2022-09-20T22:44:35.034Z,8.22
2022-09-20T22:47:37.760Z,8.25
2022-09-20T22:50:40.177Z,8.31
2022-09-20T22:53:43.703Z,8.35
2022-09-20T22:56:46.216Z,8.26
2022-09-20T22:59:48.915Z,8.21
2022-09-20T23:02:56.373Z,8.19
2022-09-20T23:05:59.208Z,8.18
2022-09-20T23:09:04.264Z,8.17
2022-09-20T23:12:07.000Z,8.11
2022-09-20T23:15:11.673Z,8.09
2022-09-20T23:18:15.016Z,8.08
2022-09-20T23:21:18.165Z,8.06
2022-09-20T23:24:20.803Z,8.18
2022-09-20T23:27:23.281Z,8.17
2022-09-20T23:30:26.026Z,8.21
2022-09-20T23:33:28.661Z,8.12
2022-09-20T23:36:34.627Z,8.05
2022-09-20T23:39:37.145Z,8.10
2022-09-20T23:42:39.805Z,8.14
2022-09-20T23:45:42.625Z,8.14
2022-09-20T23:48:46.168Z,8.19
2022-09-20T23:51:48.717Z,8.25
2022-09-20T23:54:51.434Z,8.26
2022-09-20T23:57:57.640Z,8.39
